Kittitas — WYQ9302 — position and weather

sailwx.info

Track history (hours):
 
Tides and Currents Weather Stations Pressure Air Temp Water Temp Dewpoint Dewpoint Depression Visibility Wind Speed Wind Dir Waves Ship Positions

Kittitas

Owner: WASHINGTON, STATE OF; Dept. of Transportation, OLYMPIA, WA. More information available from US FCC via Universal Licensing System and Coast Guard Vessel Documentation Center.

Last reported at 2015-May-04 20:32 UTC. Time now 2015-May-04 21:09 UTC.
Position N 47°58' W 122°21'.

Length 100 m; draft 4.7 m.

Type: Passenger vessel. MMSI: 366772960.

Date/timePositionNaut miles runAvg speedWind from/ knotsBaromVisibWave heightAir tempDewpointWater temp
2015-May-04 20:32N 47°58' W 122°21'1 2.0
2015-May-04 20:07N 47°58' W 122°20'1 1.3
2015-May-04 19:33N 47°58' W 122°20'0 0.2
2015-May-04 18:33N 47°58' W 122°21'0 0.0
2015-May-04 17:33N 47°58' W 122°21'2 3.5
2015-May-04 16:56N 47°57' W 122°18'2 6.1
2015-May-04 16:33N 47°58' W 122°21'0 0.0
2015-May-04 16:32N 47°58' W 122°21'0 0.3
2015-May-04 15:33N 47°58' W 122°21'0 8.6
2015-May-04 15:32N 47°58' W 122°21'0 0.3
2015-May-04 14:33N 47°58' W 122°21'0 0.2
2015-May-04 13:33N 47°58' W 122°21'0 0.3
2015-May-04 12:33N 47°58' W 122°20'0 0.5
2015-May-04 12:14N 47°58' W 122°20'1 0.8
2015-May-04 11:33N 47°58' W 122°21'0 0.0
2015-May-04 10:34N 47°58' W 122°21'0 0.0
2015-May-04 08:25N 47°58' W 122°21'0 0.5
2015-May-04 07:33N 47°58' W 122°21'016.0
2015-May-04 07:32N 47°58' W 122°21'0 0.2
2015-May-04 06:33N 47°58' W 122°21'0 0.0
2015-May-04 06:33N 47°58' W 122°21'2 2.9
2015-May-04 05:52N 47°57' W 122°18'2 6.5
2015-May-04 05:33N 47°58' W 122°21'0 0.1
2015-May-04 04:33N 47°58' W 122°21'0 0.4
2015-May-04 04:12N 47°58' W 122°21'0 0.3
2015-May-04 03:33N 47°58' W 122°20'1 1.4
2015-May-04 03:08N 47°58' W 122°20'1 1.0
2015-May-04 02:33N 47°58' W 122°21'0 1.0
2015-May-04 02:12N 47°58' W 122°21'0 0.4
2015-May-04 01:34N 47°58' W 122°21'0 0.1
2015-May-04 00:33N 47°58' W 122°20'0 8.6
2015-May-04 00:30N 47°58' W 122°21'0 0.2
2015-May-03 23:33N 47°58' W 122°21'0 0.1
2015-May-03 22:33N 47°58' W 122°21'2 2.7
2015-May-03 21:45N 47°57' W 122°18'211.9
2015-May-03 21:33N 47°58' W 122°21'2 4.7
2015-May-03 21:05N 47°57' W 122°18'2 4.2
2015-May-03 20:33N 47°58' W 122°21'0 0.7
2015-May-03 20:14N 47°58' W 122°21'0 0.2
2015-May-03 19:33N 47°58' W 122°21'1 1.6
2015-May-03 18:39N 47°58' W 122°19'114.5
2015-May-03 18:33N 47°58' W 122°21'1 1.1
2015-May-03 17:40N 47°58' W 122°20'1 9.9
2015-May-03 17:33N 47°58' W 122°21'0 0.0
2015-May-03 17:19N 47°58' W 122°21'0 0.6
2015-May-03 16:34N 47°58' W 122°20'0 0.1
2015-May-03 15:33N 47°58' W 122°21'011.5
2015-May-03 15:32N 47°58' W 122°21'2 3.1
2015-May-03 15:03N 47°57' W 122°19'2 3.2
2015-May-03 14:33N 47°58' W 122°21'0 0.0
2015-May-03 13:33N 47°58' W 122°21'0 0.0
2015-May-03 12:33N 47°58' W 122°21'0 0.1
2015-May-03 11:09N 47°58' W 122°21'0 0.0
2015-May-03 09:01N 47°58' W 122°21'0 0.0
2015-May-03 08:33N 47°58' W 122°21'0 0.3
2015-May-03 07:33N 47°58' W 122°21'0 0.3
2015-May-03 06:33N 47°58' W 122°21'0 0.1
2015-May-03 05:33N 47°58' W 122°21'0 0.2
2015-May-03 04:33N 47°58' W 122°20'0 0.4
2015-May-03 03:32N 47°58' W 122°21'0 0.4
2015-May-03 02:35N 47°58' W 122°20'011.4
2015-May-03 02:33N 47°58' W 122°21'1 2.3
2015-May-03 02:10N 47°58' W 122°20'1 1.9
2015-May-03 01:33N 47°58' W 122°21'1 3.5
2015-May-03 01:14N 47°58' W 122°20'1 1.6
2015-May-03 00:33N 47°58' W 122°21'0 0.0
2015-May-02 23:33N 47°58' W 122°21'0 0.3
2015-May-02 22:33N 47°58' W 122°21'0 1.3
2015-May-02 22:18N 47°58' W 122°21'0 0.0
2015-May-02 21:33N 47°58' W 122°21'0 0.1
2015-May-02 20:33N 47°58' W 122°21'2 1.8
2015-May-02 19:40N 47°58' W 122°19'113.6
2015-May-02 19:33N 47°58' W 122°21'0 0.1
2015-May-02 18:33N 47°58' W 122°21'0 0.0
2015-May-02 17:33N 47°58' W 122°21'0 0.1
2015-May-02 16:33N 47°58' W 122°21'0 0.1
2015-May-02 15:22N 47°58' W 122°21'2 7.0
2015-May-02 15:07N 47°57' W 122°19'2 2.7
2015-May-02 14:33N 47°58' W 122°21'0 0.0
2015-May-02 13:33N 47°58' W 122°21'1 1.8
2015-May-02 13:07N 47°58' W 122°20'1 0.9
2015-May-02 12:33N 47°58' W 122°20'112.2
2015-May-02 12:31N 47°58' W 122°21'0 0.0
2015-May-02 11:30N 47°58' W 122°21'0 0.0
2015-May-02 08:59N 47°58' W 122°21'0 0.0
2015-May-02 08:31N 47°58' W 122°21'1 0.6
2015-May-02 07:33N 47°58' W 122°20'1 0.7
2015-May-02 06:36N 47°58' W 122°20'113.7
2015-May-02 06:33N 47°58' W 122°20'012.4
2015-May-02 06:31N 47°58' W 122°21'2 2.0
2015-May-02 05:39N 47°57' W 122°19'114.1
2015-May-02 05:33N 47°58' W 122°20'1 0.5
2015-May-02 04:33N 47°58' W 122°21'0 0.4
2015-May-02 03:33N 47°58' W 122°21'0 0.1
2015-May-02 02:33N 47°58' W 122°21'0 0.2
2015-May-02 01:33N 47°58' W 122°21'0 0.1
2015-May-02 00:34N 47°58' W 122°21'0 0.0
2015-May-01 23:33N 47°58' W 122°21'0 0.0
2015-May-01 22:32N 47°58' W 122°21'0 0.0
2015-May-01 21:33N 47°58' W 122°21'0 0.3
2015-May-01 20:33N 47°58' W 122°21'0 0.1
2015-May-01 19:33N 47°58' W 122°20'0 0.1
2015-May-01 18:33N 47°58' W 122°21'0 0.1
2015-May-01 17:33N 47°58' W 122°20'0 0.0
2015-May-01 16:33N 47°58' W 122°20'0 0.5
2015-May-01 16:09N 47°58' W 122°21'0 0.4
2015-May-01 15:33N 47°58' W 122°21'1 0.9
2015-May-01 14:36N 47°58' W 122°19'113.8
2015-May-01 14:33N 47°58' W 122°21'0 0.1
2015-May-01 13:33N 47°58' W 122°21'0 0.1
2015-May-01 12:33N 47°58' W 122°21'0 0.3
2015-May-01 10:46N 47°59' W 122°21'0 0.0
2015-May-01 10:32N 47°59' W 122°21'0 0.0
2015-May-01 09:31N 47°59' W 122°21'0 0.0
2015-May-01 08:07N 47°59' W 122°21'0 0.0
2015-May-01 07:11N 47°59' W 122°21'0 0.0
2015-May-01 07:05N 47°59' W 122°21'0 0.0
2015-May-01 06:05N 47°59' W 122°21'0 0.0
2015-May-01 04:25N 47°59' W 122°21'0 0.5
2015-May-01 03:33N 47°58' W 122°21'0 0.4
2015-May-01 02:33N 47°58' W 122°20'1 2.5
2015-May-01 02:16N 47°58' W 122°21'0 0.2
2015-May-01 01:34N 47°58' W 122°21'0 0.0
2015-May-01 00:33N 47°58' W 122°21'0 0.0
2015-Apr-30 23:32N 47°58' W 122°21'0 0.3
2015-Apr-30 22:33N 47°58' W 122°20'0 0.3
2015-Apr-30 21:33N 47°58' W 122°21'0 0.4
2015-Apr-30 20:33N 47°58' W 122°20'0 0.6
2015-Apr-30 20:09N 47°58' W 122°21'0 0.3
2015-Apr-30 19:32N 47°58' W 122°21'1 0.7
2015-Apr-30 18:38N 47°58' W 122°20'110.4
2015-Apr-30 18:33N 47°58' W 122°21'0 0.6
2015-Apr-30 18:18N 47°58' W 122°21'0 0.5
2015-Apr-30 17:34N 47°59' W 122°21'1 0.7
2015-Apr-30 16:33N 47°58' W 122°20'0 0.2
2015-Apr-30 15:33N 47°58' W 122°21'0 0.4
2015-Apr-30 15:11N 47°58' W 122°21'0 0.6
2015-Apr-30 14:33N 47°58' W 122°20'012.2
2015-Apr-30 14:31N 47°58' W 122°21'0 0.2
2015-Apr-30 13:33N 47°58' W 122°21'0 0.2
2015-Apr-30 12:33N 47°58' W 122°20'0 0.2
2015-Apr-30 11:42N 47°58' W 122°21'0 2.0
2015-Apr-30 11:30N 47°58' W 122°21'0 0.0
2015-Apr-30 08:16N 47°58' W 122°21'0 0.7
2015-Apr-30 07:33N 47°58' W 122°20'0 0.1
2015-Apr-30 06:33N 47°58' W 122°21'011.1
2015-Apr-30 06:31N 47°58' W 122°21'0 0.0
2015-Apr-30 05:33N 47°58' W 122°21'0 0.1
2015-Apr-30 04:33N 47°58' W 122°21'0 0.3
2015-Apr-30 03:33N 47°58' W 122°21'0 0.1
2015-Apr-30 02:33N 47°58' W 122°21'0 0.0
2015-Apr-30 01:33N 47°58' W 122°20'0 0.1
2015-Apr-30 00:33N 47°58' W 122°21'0 0.2
2015-Apr-29 23:33N 47°58' W 122°20'0 0.2
2015-Apr-29 22:32N 47°58' W 122°21'011.2
2015-Apr-29 22:31N 47°58' W 122°21'1 0.7
2015-Apr-29 21:08N 47°58' W 122°20'1 0.2
2015-Apr-29 16:38N 47°57' W 122°19'113.8
2015-Apr-29 16:34N 47°58' W 122°20'2 1.9
2015-Apr-29 15:43N 47°57' W 122°18'211.7
2015-Apr-29 15:33N 47°58' W 122°20'0 0.3
2015-Apr-29 14:33N 47°58' W 122°21'0 0.4
2015-Apr-29 13:33N 47°58' W 122°20'013.7
2015-Apr-29 13:32N 47°58' W 122°20'0 0.1
2015-Apr-29 12:33N 47°58' W 122°20'1 0.8
2015-Apr-29 11:42N 47°59' W 122°21'0 1.2
2015-Apr-29 11:32N 47°59' W 122°21'0 0.0
2015-Apr-29 11:15N 47°59' W 122°21'0 0.0
2015-Apr-29 10:33N 47°59' W 122°21'0 0.1
2015-Apr-29 10:27N 47°59' W 122°21'0 0.0
2015-Apr-29 09:33N 47°59' W 122°21'0 0.2
2015-Apr-29 09:31N 47°59' W 122°21'0 0.0
2015-Apr-29 08:06N 47°59' W 122°21'0 0.0
2015-Apr-29 08:06N 47°59' W 122°21'0 0.0
2015-Apr-29 07:05N 47°59' W 122°21'0 0.0
2015-Apr-29 06:25N 47°59' W 122°21'0 0.1
2015-Apr-29 06:06N 47°59' W 122°21'0 0.1
2015-Apr-29 05:33N 47°59' W 122°21'0 0.0
2015-Apr-29 04:33N 47°59' W 122°21'0 0.5
2015-Apr-29 03:33N 47°58' W 122°21'0 0.2
2015-Apr-29 02:33N 47°58' W 122°20'0 0.4
2015-Apr-29 01:32N 47°58' W 122°21'0 0.1
2015-Apr-29 00:33N 47°58' W 122°21'0 0.4
2015-Apr-28 23:33N 47°58' W 122°20'2 2.5
2015-Apr-28 22:48N 47°57' W 122°18'2 7.3
2015-Apr-28 22:33N 47°58' W 122°20'2 3.5
2015-Apr-28 22:03N 47°57' W 122°18'2 3.6
2015-Apr-28 21:33N 47°58' W 122°20'0 0.2
2015-Apr-28 20:32N 47°58' W 122°21'0 0.1
2015-Apr-28 19:33N 47°58' W 122°21'0 0.2
2015-Apr-28 18:34N 47°58' W 122°20'0 0.2
2015-Apr-28 17:32N 47°58' W 122°21'0 0.1
2015-Apr-28 16:33N 47°58' W 122°20'0 2.2
2015-Apr-28 16:20N 47°58' W 122°21'0 0.3
2015-Apr-28 15:32N 47°58' W 122°21'0 0.0
2015-Apr-28 14:33N 47°58' W 122°21'0 0.4
2015-Apr-28 13:33N 47°58' W 122°20'0 0.3
2015-Apr-28 12:33N 47°58' W 122°21'0 0.4
2015-Apr-28 11:33N 47°59' W 122°21'0 0.0
2015-Apr-28 10:33N 47°59' W 122°21'0 0.0
2015-Apr-28 09:28N 47°59' W 122°21'0 0.0
2015-Apr-28 08:20N 47°59' W 122°21'0 0.0
2015-Apr-28 07:20N 47°59' W 122°21'0 0.0
2015-Apr-28 06:33N 47°59' W 122°21'0 0.0
2015-Apr-28 05:33N 47°59' W 122°21'0 0.0
2015-Apr-28 04:33N 47°59' W 122°21'0 0.2
2015-Apr-28 03:32N 47°58' W 122°21'2 4.1
2015-Apr-28 02:59N 47°57' W 122°18'2 4.0
2015-Apr-28 02:33N 47°58' W 122°20'2 3.0
2015-Apr-28 01:59N 47°57' W 122°18'2 4.1
2015-Apr-28 01:34N 47°58' W 122°20'1 7.7
2015-Apr-28 01:29N 47°58' W 122°21'0 0.4
2015-Apr-28 00:33N 47°58' W 122°21'0 0.1
2015-Apr-27 23:33N 47°58' W 122°21'0 0.5
2015-Apr-27 23:13N 47°58' W 122°21'0 0.2
2015-Apr-27 22:33N 47°58' W 122°21'0 7.3
2015-Apr-27 22:33N 47°58' W 122°21'0 0.2
2015-Apr-27 21:33N 47°58' W 122°20'0 0.0
2015-Apr-27 20:33N 47°58' W 122°20'0 0.0
2015-Apr-27 19:33N 47°58' W 122°21'0 0.1
2015-Apr-27 18:33N 47°58' W 122°20'011.9
2015-Apr-27 18:32N 47°58' W 122°21'0 0.1
2015-Apr-27 17:33N 47°58' W 122°21'0 0.1
2015-Apr-27 16:33N 47°58' W 122°21'0 0.4
2015-Apr-27 15:33N 47°58' W 122°21'1 0.5
2015-Apr-27 14:33N 47°58' W 122°20'0 0.0
2015-Apr-27 13:33N 47°58' W 122°20'011.1
2015-Apr-27 13:31N 47°58' W 122°21'0 0.2
2015-Apr-27 12:33N 47°58' W 122°21'0 0.2
2015-Apr-27 11:34N 47°58' W 122°21'0 0.0
2015-Apr-27 10:32N 47°58' W 122°21'0 0.0
2015-Apr-27 09:33N 47°58' W 122°21'0 0.0
2015-Apr-27 08:21N 47°58' W 122°21'0 0.6
2015-Apr-27 07:33N 47°58' W 122°20'0 0.3
2015-Apr-27 06:32N 47°58' W 122°21'0 0.3
2015-Apr-27 06:12N 47°58' W 122°21'112.4
2015-Apr-27 06:07N 47°58' W 122°20'1 1.1
2015-Apr-27 05:33N 47°58' W 122°21'0 0.0
2015-Apr-27 04:33N 47°58' W 122°21'0 0.2
2015-Apr-27 03:33N 47°58' W 122°20'0 0.2
2015-Apr-27 02:33N 47°58' W 122°20'0 0.4
2015-Apr-27 01:33N 47°58' W 122°21'0 0.4
2015-Apr-27 00:33N 47°58' W 122°21'0 0.0
2015-Apr-26 23:33N 47°58' W 122°21'0 0.2
2015-Apr-26 23:16N 47°58' W 122°21'0 0.1
2015-Apr-26 22:33N 47°58' W 122°21'0 0.2
2015-Apr-26 21:33N 47°58' W 122°20'0 0.5
2015-Apr-26 20:33N 47°58' W 122°20'1 0.7
2015-Apr-26 19:33N 47°58' W 122°21'1 0.7
2015-Apr-26 18:33N 47°58' W 122°20'0 0.3
2015-Apr-26 17:33N 47°58' W 122°20'0 0.2
2015-Apr-26 16:33N 47°58' W 122°20'0 0.1
2015-Apr-26 15:33N 47°58' W 122°20'0 0.0
2015-Apr-26 14:33N 47°58' W 122°20'0 1.5
2015-Apr-26 14:14N 47°58' W 122°21'0 0.7
2015-Apr-26 13:33N 47°58' W 122°20'1 1.3
2015-Apr-26 13:08N 47°58' W 122°20'1 1.3
2015-Apr-26 12:33N 47°58' W 122°21'0 0.0
2015-Apr-26 12:33N 47°58' W 122°21'0 0.1
2015-Apr-26 10:24N 47°58' W 122°21'0 0.0
2015-Apr-26 08:22N 47°58' W 122°21'0 0.5
2015-Apr-26 07:33N 47°58' W 122°20'0 0.1
2015-Apr-26 06:33N 47°58' W 122°21'0 0.0
2015-Apr-26 05:33N 47°58' W 122°21'1 2.2
2015-Apr-26 05:06N 47°58' W 122°20'1 1.8
2015-Apr-26 04:33N 47°58' W 122°21'0 0.1
2015-Apr-26 03:33N 47°58' W 122°20'0 0.1
2015-Apr-26 02:33N 47°58' W 122°21'0 0.0
2015-Apr-26 01:33N 47°58' W 122°21'0 0.2
2015-Apr-26 00:33N 47°58' W 122°21'0 0.0
2015-Apr-25 23:34N 47°58' W 122°21'0 0.0
2015-Apr-25 22:33N 47°58' W 122°21'0 0.0
2015-Apr-25 21:33N 47°58' W 122°21'0 0.3
2015-Apr-25 20:33N 47°58' W 122°21'0 0.0
2015-Apr-25 19:32N 47°58' W 122°21'0 0.1
2015-Apr-25 18:33N 47°58' W 122°21'0 0.1
2015-Apr-25 17:32N 47°58' W 122°21'0 0.2
2015-Apr-25 16:33N 47°58' W 122°21'0 0.2
2015-Apr-25 15:33N 47°58' W 122°21'1 0.7
2015-Apr-25 14:33N 47°58' W 122°20'0 0.1
2015-Apr-25 13:34N 47°58' W 122°20'0 0.1
2015-Apr-25 12:33N 47°58' W 122°20'1 0.2
2015-Apr-25 09:15N 47°58' W 122°21'0 0.0
2015-Apr-25 08:24N 47°58' W 122°21'1 0.8
2015-Apr-25 07:33N 47°58' W 122°20'0 0.1
2015-Apr-25 06:33N 47°58' W 122°20'0 0.1
2015-Apr-25 05:33N 47°58' W 122°20'0 0.2
2015-Apr-25 04:33N 47°58' W 122°21'0 0.1
2015-Apr-25 03:33N 47°58' W 122°21'0 0.4
2015-Apr-25 02:33N 47°58' W 122°20'0 0.3
2015-Apr-25 01:33N 47°58' W 122°21'0 0.3
2015-Apr-25 00:33N 47°58' W 122°21'0 0.2
2015-Apr-24 23:33N 47°58' W 122°21'0 0.1
2015-Apr-24 22:33N 47°58' W 122°21'0 0.0
2015-Apr-24 21:33N 47°58' W 122°21'1 0.6
2015-Apr-24 20:33N 47°58' W 122°20'  
Track history (hours):
 
Tides and Currents Weather Stations Pressure Air Temp Water Temp Dewpoint Dewpoint Depression Visibility Wind Speed Wind Dir Waves Ship Positions

Kittitas

Owner: WASHINGTON, STATE OF; Dept. of Transportation, OLYMPIA, WA. More information available from US FCC via Universal Licensing System and Coast Guard Vessel Documentation Center.

Last reported at 2015-May-04 20:32 UTC. Time now 2015-May-04 21:09 UTC.
Position N 47°58' W 122°21'.

Length 100 m; draft 4.7 m.

Type: Passenger vessel. MMSI: 366772960.

Date/timePositionNaut miles runAvg speedWind from/ knotsBaromVisibWave heightAir tempDewpointWater temp
2015-May-04 20:32N 47°58' W 122°21'1 2.0
2015-May-04 20:07N 47°58' W 122°20'1 1.3
2015-May-04 19:33N 47°58' W 122°20'0 0.2
2015-May-04 18:33N 47°58' W 122°21'0 0.0
2015-May-04 17:33N 47°58' W 122°21'2 3.5
2015-May-04 16:56N 47°57' W 122°18'2 6.1
2015-May-04 16:33N 47°58' W 122°21'0 0.0
2015-May-04 16:32N 47°58' W 122°21'0 0.3
2015-May-04 15:33N 47°58' W 122°21'0 8.6
2015-May-04 15:32N 47°58' W 122°21'0 0.3
2015-May-04 14:33N 47°58' W 122°21'0 0.2
2015-May-04 13:33N 47°58' W 122°21'0 0.3
2015-May-04 12:33N 47°58' W 122°20'0 0.5
2015-May-04 12:14N 47°58' W 122°20'1 0.8
2015-May-04 11:33N 47°58' W 122°21'0 0.0
2015-May-04 10:34N 47°58' W 122°21'0 0.0
2015-May-04 08:25N 47°58' W 122°21'0 0.5
2015-May-04 07:33N 47°58' W 122°21'016.0
2015-May-04 07:32N 47°58' W 122°21'0 0.2
2015-May-04 06:33N 47°58' W 122°21'0 0.0
2015-May-04 06:33N 47°58' W 122°21'2 2.9
2015-May-04 05:52N 47°57' W 122°18'2 6.5
2015-May-04 05:33N 47°58' W 122°21'0 0.1
2015-May-04 04:33N 47°58' W 122°21'0 0.4
2015-May-04 04:12N 47°58' W 122°21'0 0.3
2015-May-04 03:33N 47°58' W 122°20'1 1.4
2015-May-04 03:08N 47°58' W 122°20'1 1.0
2015-May-04 02:33N 47°58' W 122°21'0 1.0
2015-May-04 02:12N 47°58' W 122°21'0 0.4
2015-May-04 01:34N 47°58' W 122°21'0 0.1
2015-May-04 00:33N 47°58' W 122°20'0 8.6
2015-May-04 00:30N 47°58' W 122°21'0 0.2
2015-May-03 23:33N 47°58' W 122°21'0 0.1
2015-May-03 22:33N 47°58' W 122°21'2 2.7
2015-May-03 21:45N 47°57' W 122°18'211.9
2015-May-03 21:33N 47°58' W 122°21'2 4.7
2015-May-03 21:05N 47°57' W 122°18'2 4.2
2015-May-03 20:33N 47°58' W 122°21'0 0.7
2015-May-03 20:14N 47°58' W 122°21'0 0.2
2015-May-03 19:33N 47°58' W 122°21'1 1.6
2015-May-03 18:39N 47°58' W 122°19'114.5
2015-May-03 18:33N 47°58' W 122°21'1 1.1
2015-May-03 17:40N 47°58' W 122°20'1 9.9
2015-May-03 17:33N 47°58' W 122°21'0 0.0
2015-May-03 17:19N 47°58' W 122°21'0 0.6
2015-May-03 16:34N 47°58' W 122°20'0 0.1
2015-May-03 15:33N 47°58' W 122°21'011.5
2015-May-03 15:32N 47°58' W 122°21'2 3.1
2015-May-03 15:03N 47°57' W 122°19'2 3.2
2015-May-03 14:33N 47°58' W 122°21'0 0.0
2015-May-03 13:33N 47°58' W 122°21'0 0.0
2015-May-03 12:33N 47°58' W 122°21'0 0.1
2015-May-03 11:09N 47°58' W 122°21'0 0.0
2015-May-03 09:01N 47°58' W 122°21'0 0.0
2015-May-03 08:33N 47°58' W 122°21'0 0.3
2015-May-03 07:33N 47°58' W 122°21'0 0.3
2015-May-03 06:33N 47°58' W 122°21'0 0.1
2015-May-03 05:33N 47°58' W 122°21'0 0.2
2015-May-03 04:33N 47°58' W 122°20'0 0.4
2015-May-03 03:32N 47°58' W 122°21'0 0.4
2015-May-03 02:35N 47°58' W 122°20'011.4
2015-May-03 02:33N 47°58' W 122°21'1 2.3
2015-May-03 02:10N 47°58' W 122°20'1 1.9
2015-May-03 01:33N 47°58' W 122°21'1 3.5
2015-May-03 01:14N 47°58' W 122°20'1 1.6
2015-May-03 00:33N 47°58' W 122°21'0 0.0
2015-May-02 23:33N 47°58' W 122°21'0 0.3
2015-May-02 22:33N 47°58' W 122°21'0 1.3
2015-May-02 22:18N 47°58' W 122°21'0 0.0
2015-May-02 21:33N 47°58' W 122°21'0 0.1
2015-May-02 20:33N 47°58' W 122°21'2 1.8
2015-May-02 19:40N 47°58' W 122°19'113.6
2015-May-02 19:33N 47°58' W 122°21'0 0.1
2015-May-02 18:33N 47°58' W 122°21'0 0.0
2015-May-02 17:33N 47°58' W 122°21'0 0.1
2015-May-02 16:33N 47°58' W 122°21'0 0.1
2015-May-02 15:22N 47°58' W 122°21'2 7.0
2015-May-02 15:07N 47°57' W 122°19'2 2.7
2015-May-02 14:33N 47°58' W 122°21'0 0.0
2015-May-02 13:33N 47°58' W 122°21'1 1.8
2015-May-02 13:07N 47°58' W 122°20'1 0.9
2015-May-02 12:33N 47°58' W 122°20'112.2
2015-May-02 12:31N 47°58' W 122°21'0 0.0
2015-May-02 11:30N 47°58' W 122°21'0 0.0
2015-May-02 08:59N 47°58' W 122°21'0 0.0
2015-May-02 08:31N 47°58' W 122°21'1 0.6
2015-May-02 07:33N 47°58' W 122°20'1 0.7
2015-May-02 06:36N 47°58' W 122°20'113.7
2015-May-02 06:33N 47°58' W 122°20'012.4
2015-May-02 06:31N 47°58' W 122°21'2 2.0
2015-May-02 05:39N 47°57' W 122°19'114.1
2015-May-02 05:33N 47°58' W 122°20'1 0.5
2015-May-02 04:33N 47°58' W 122°21'0 0.4
2015-May-02 03:33N 47°58' W 122°21'0 0.1
2015-May-02 02:33N 47°58' W 122°21'0 0.2
2015-May-02 01:33N 47°58' W 122°21'0 0.1
2015-May-02 00:34N 47°58' W 122°21'0 0.0
2015-May-01 23:33N 47°58' W 122°21'0 0.0
2015-May-01 22:32N 47°58' W 122°21'0 0.0
2015-May-01 21:33N 47°58' W 122°21'0 0.3
2015-May-01 20:33N 47°58' W 122°21'0 0.1
2015-May-01 19:33N 47°58' W 122°20'0 0.1
2015-May-01 18:33N 47°58' W 122°21'0 0.1
2015-May-01 17:33N 47°58' W 122°20'0 0.0
2015-May-01 16:33N 47°58' W 122°20'0 0.5
2015-May-01 16:09N 47°58' W 122°21'0 0.4
2015-May-01 15:33N 47°58' W 122°21'1 0.9
2015-May-01 14:36N 47°58' W 122°19'113.8
2015-May-01 14:33N 47°58' W 122°21'0 0.1
2015-May-01 13:33N 47°58' W 122°21'0 0.1
2015-May-01 12:33N 47°58' W 122°21'0 0.3
2015-May-01 10:46N 47°59' W 122°21'0 0.0
2015-May-01 10:32N 47°59' W 122°21'0 0.0
2015-May-01 09:31N 47°59' W 122°21'0 0.0
2015-May-01 08:07N 47°59' W 122°21'0 0.0
2015-May-01 07:11N 47°59' W 122°21'0 0.0
2015-May-01 07:05N 47°59' W 122°21'0 0.0
2015-May-01 06:05N 47°59' W 122°21'0 0.0
2015-May-01 04:25N 47°59' W 122°21'0 0.5
2015-May-01 03:33N 47°58' W 122°21'0 0.4
2015-May-01 02:33N 47°58' W 122°20'1 2.5
2015-May-01 02:16N 47°58' W 122°21'0 0.2
2015-May-01 01:34N 47°58' W 122°21'0 0.0
2015-May-01 00:33N 47°58' W 122°21'0 0.0
2015-Apr-30 23:32N 47°58' W 122°21'0 0.3
2015-Apr-30 22:33N 47°58' W 122°20'0 0.3
2015-Apr-30 21:33N 47°58' W 122°21'0 0.4
2015-Apr-30 20:33N 47°58' W 122°20'0 0.6
2015-Apr-30 20:09N 47°58' W 122°21'0 0.3
2015-Apr-30 19:32N 47°58' W 122°21'1 0.7
2015-Apr-30 18:38N 47°58' W 122°20'110.4
2015-Apr-30 18:33N 47°58' W 122°21'0 0.6
2015-Apr-30 18:18N 47°58' W 122°21'0 0.5
2015-Apr-30 17:34N 47°59' W 122°21'1 0.7
2015-Apr-30 16:33N 47°58' W 122°20'0 0.2
2015-Apr-30 15:33N 47°58' W 122°21'0 0.4
2015-Apr-30 15:11N 47°58' W 122°21'0 0.6
2015-Apr-30 14:33N 47°58' W 122°20'012.2
2015-Apr-30 14:31N 47°58' W 122°21'0 0.2
2015-Apr-30 13:33N 47°58' W 122°21'0 0.2
2015-Apr-30 12:33N 47°58' W 122°20'0 0.2
2015-Apr-30 11:42N 47°58' W 122°21'0 2.0
2015-Apr-30 11:30N 47°58' W 122°21'0 0.0
2015-Apr-30 08:16N 47°58' W 122°21'0 0.7
2015-Apr-30 07:33N 47°58' W 122°20'0 0.1
2015-Apr-30 06:33N 47°58' W 122°21'011.1
2015-Apr-30 06:31N 47°58' W 122°21'0 0.0
2015-Apr-30 05:33N 47°58' W 122°21'0 0.1
2015-Apr-30 04:33N 47°58' W 122°21'0 0.3
2015-Apr-30 03:33N 47°58' W 122°21'0 0.1
2015-Apr-30 02:33N 47°58' W 122°21'0 0.0
2015-Apr-30 01:33N 47°58' W 122°20'0 0.1
2015-Apr-30 00:33N 47°58' W 122°21'0 0.2
2015-Apr-29 23:33N 47°58' W 122°20'0 0.2
2015-Apr-29 22:32N 47°58' W 122°21'011.2
2015-Apr-29 22:31N 47°58' W 122°21'1 0.7
2015-Apr-29 21:08N 47°58' W 122°20'1 0.2
2015-Apr-29 16:38N 47°57' W 122°19'113.8
2015-Apr-29 16:34N 47°58' W 122°20'2 1.9
2015-Apr-29 15:43N 47°57' W 122°18'211.7
2015-Apr-29 15:33N 47°58' W 122°20'0 0.3
2015-Apr-29 14:33N 47°58' W 122°21'0 0.4
2015-Apr-29 13:33N 47°58' W 122°20'013.7
2015-Apr-29 13:32N 47°58' W 122°20'0 0.1
2015-Apr-29 12:33N 47°58' W 122°20'1 0.8
2015-Apr-29 11:42N 47°59' W 122°21'0 1.2
2015-Apr-29 11:32N 47°59' W 122°21'0 0.0
2015-Apr-29 11:15N 47°59' W 122°21'0 0.0
2015-Apr-29 10:33N 47°59' W 122°21'0 0.1
2015-Apr-29 10:27N 47°59' W 122°21'0 0.0
2015-Apr-29 09:33N 47°59' W 122°21'0 0.2
2015-Apr-29 09:31N 47°59' W 122°21'0 0.0
2015-Apr-29 08:06N 47°59' W 122°21'0 0.0
2015-Apr-29 08:06N 47°59' W 122°21'0 0.0
2015-Apr-29 07:05N 47°59' W 122°21'0 0.0
2015-Apr-29 06:25N 47°59' W 122°21'0 0.1
2015-Apr-29 06:06N 47°59' W 122°21'0 0.1
2015-Apr-29 05:33N 47°59' W 122°21'0 0.0
2015-Apr-29 04:33N 47°59' W 122°21'0 0.5
2015-Apr-29 03:33N 47°58' W 122°21'0 0.2
2015-Apr-29 02:33N 47°58' W 122°20'0 0.4
2015-Apr-29 01:32N 47°58' W 122°21'0 0.1
2015-Apr-29 00:33N 47°58' W 122°21'0 0.4
2015-Apr-28 23:33N 47°58' W 122°20'2 2.5
2015-Apr-28 22:48N 47°57' W 122°18'2 7.3
2015-Apr-28 22:33N 47°58' W 122°20'2 3.5
2015-Apr-28 22:03N 47°57' W 122°18'2 3.6
2015-Apr-28 21:33N 47°58' W 122°20'0 0.2
2015-Apr-28 20:32N 47°58' W 122°21'0 0.1
2015-Apr-28 19:33N 47°58' W 122°21'0 0.2
2015-Apr-28 18:34N 47°58' W 122°20'0 0.2
2015-Apr-28 17:32N 47°58' W 122°21'0 0.1
2015-Apr-28 16:33N 47°58' W 122°20'0 2.2
2015-Apr-28 16:20N 47°58' W 122°21'0 0.3
2015-Apr-28 15:32N 47°58' W 122°21'0 0.0
2015-Apr-28 14:33N 47°58' W 122°21'0 0.4
2015-Apr-28 13:33N 47°58' W 122°20'0 0.3
2015-Apr-28 12:33N 47°58' W 122°21'0 0.4
2015-Apr-28 11:33N 47°59' W 122°21'0 0.0
2015-Apr-28 10:33N 47°59' W 122°21'0 0.0
2015-Apr-28 09:28N 47°59' W 122°21'0 0.0
2015-Apr-28 08:20N 47°59' W 122°21'0 0.0
2015-Apr-28 07:20N 47°59' W 122°21'0 0.0
2015-Apr-28 06:33N 47°59' W 122°21'0 0.0
2015-Apr-28 05:33N 47°59' W 122°21'0 0.0
2015-Apr-28 04:33N 47°59' W 122°21'0 0.2
2015-Apr-28 03:32N 47°58' W 122°21'2 4.1
2015-Apr-28 02:59N 47°57' W 122°18'2 4.0
2015-Apr-28 02:33N 47°58' W 122°20'2 3.0
2015-Apr-28 01:59N 47°57' W 122°18'2 4.1
2015-Apr-28 01:34N 47°58' W 122°20'1 7.7
2015-Apr-28 01:29N 47°58' W 122°21'0 0.4
2015-Apr-28 00:33N 47°58' W 122°21'0 0.1
2015-Apr-27 23:33N 47°58' W 122°21'0 0.5
2015-Apr-27 23:13N 47°58' W 122°21'0 0.2
2015-Apr-27 22:33N 47°58' W 122°21'0 7.3
2015-Apr-27 22:33N 47°58' W 122°21'0 0.2
2015-Apr-27 21:33N 47°58' W 122°20'0 0.0
2015-Apr-27 20:33N 47°58' W 122°20'0 0.0
2015-Apr-27 19:33N 47°58' W 122°21'0 0.1
2015-Apr-27 18:33N 47°58' W 122°20'011.9
2015-Apr-27 18:32N 47°58' W 122°21'0 0.1
2015-Apr-27 17:33N 47°58' W 122°21'0 0.1
2015-Apr-27 16:33N 47°58' W 122°21'0 0.4
2015-Apr-27 15:33N 47°58' W 122°21'1 0.5
2015-Apr-27 14:33N 47°58' W 122°20'0 0.0
2015-Apr-27 13:33N 47°58' W 122°20'011.1
2015-Apr-27 13:31N 47°58' W 122°21'0 0.2
2015-Apr-27 12:33N 47°58' W 122°21'0 0.2
2015-Apr-27 11:34N 47°58' W 122°21'0 0.0
2015-Apr-27 10:32N 47°58' W 122°21'0 0.0
2015-Apr-27 09:33N 47°58' W 122°21'0 0.0
2015-Apr-27 08:21N 47°58' W 122°21'0 0.6
2015-Apr-27 07:33N 47°58' W 122°20'0 0.3
2015-Apr-27 06:32N 47°58' W 122°21'0 0.3
2015-Apr-27 06:12N 47°58' W 122°21'112.4
2015-Apr-27 06:07N 47°58' W 122°20'1 1.1
2015-Apr-27 05:33N 47°58' W 122°21'0 0.0
2015-Apr-27 04:33N 47°58' W 122°21'0 0.2
2015-Apr-27 03:33N 47°58' W 122°20'0 0.2
2015-Apr-27 02:33N 47°58' W 122°20'0 0.4
2015-Apr-27 01:33N 47°58' W 122°21'0 0.4
2015-Apr-27 00:33N 47°58' W 122°21'0 0.0
2015-Apr-26 23:33N 47°58' W 122°21'0 0.2
2015-Apr-26 23:16N 47°58' W 122°21'0 0.1
2015-Apr-26 22:33N 47°58' W 122°21'0 0.2
2015-Apr-26 21:33N 47°58' W 122°20'0 0.5
2015-Apr-26 20:33N 47°58' W 122°20'1 0.7
2015-Apr-26 19:33N 47°58' W 122°21'1 0.7
2015-Apr-26 18:33N 47°58' W 122°20'0 0.3
2015-Apr-26 17:33N 47°58' W 122°20'0 0.2
2015-Apr-26 16:33N 47°58' W 122°20'0 0.1
2015-Apr-26 15:33N 47°58' W 122°20'0 0.0
2015-Apr-26 14:33N 47°58' W 122°20'0 1.5
2015-Apr-26 14:14N 47°58' W 122°21'0 0.7
2015-Apr-26 13:33N 47°58' W 122°20'1 1.3
2015-Apr-26 13:08N 47°58' W 122°20'1 1.3
2015-Apr-26 12:33N 47°58' W 122°21'0 0.0
2015-Apr-26 12:33N 47°58' W 122°21'0 0.1
2015-Apr-26 10:24N 47°58' W 122°21'0 0.0
2015-Apr-26 08:22N 47°58' W 122°21'0 0.5
2015-Apr-26 07:33N 47°58' W 122°20'0 0.1
2015-Apr-26 06:33N 47°58' W 122°21'0 0.0
2015-Apr-26 05:33N 47°58' W 122°21'1 2.2
2015-Apr-26 05:06N 47°58' W 122°20'1 1.8
2015-Apr-26 04:33N 47°58' W 122°21'0 0.1
2015-Apr-26 03:33N 47°58' W 122°20'0 0.1
2015-Apr-26 02:33N 47°58' W 122°21'0 0.0
2015-Apr-26 01:33N 47°58' W 122°21'0 0.2
2015-Apr-26 00:33N 47°58' W 122°21'0 0.0
2015-Apr-25 23:34N 47°58' W 122°21'0 0.0
2015-Apr-25 22:33N 47°58' W 122°21'0 0.0
2015-Apr-25 21:33N 47°58' W 122°21'0 0.3
2015-Apr-25 20:33N 47°58' W 122°21'0 0.0
2015-Apr-25 19:32N 47°58' W 122°21'0 0.1
2015-Apr-25 18:33N 47°58' W 122°21'0 0.1
2015-Apr-25 17:32N 47°58' W 122°21'0 0.2
2015-Apr-25 16:33N 47°58' W 122°21'0 0.2
2015-Apr-25 15:33N 47°58' W 122°21'1 0.7
2015-Apr-25 14:33N 47°58' W 122°20'0 0.1
2015-Apr-25 13:34N 47°58' W 122°20'0 0.1
2015-Apr-25 12:33N 47°58' W 122°20'1 0.2
2015-Apr-25 09:15N 47°58' W 122°21'0 0.0
2015-Apr-25 08:24N 47°58' W 122°21'1 0.8
2015-Apr-25 07:33N 47°58' W 122°20'0 0.1
2015-Apr-25 06:33N 47°58' W 122°20'0 0.1
2015-Apr-25 05:33N 47°58' W 122°20'0 0.2
2015-Apr-25 04:33N 47°58' W 122°21'0 0.1
2015-Apr-25 03:33N 47°58' W 122°21'0 0.4
2015-Apr-25 02:33N 47°58' W 122°20'0 0.3
2015-Apr-25 01:33N 47°58' W 122°21'0 0.3
2015-Apr-25 00:33N 47°58' W 122°21'0 0.2
2015-Apr-24 23:33N 47°58' W 122°21'0 0.1
2015-Apr-24 22:33N 47°58' W 122°21'0 0.0
2015-Apr-24 21:33N 47°58' W 122°21'1 0.6
2015-Apr-24 20:33N 47°58' W 122°20'  

Dump ship's entire track history